Time;durP1;ratioP1;P1;durP2;ratioP2;P2;SDS_P1;SDS_P2;PMS_P1;PMS_P2;Temp;Humidity;BMP_temperature;BMP_pressure;BME280_temperature;BME280_humidity;BME280_pressure;Samples;Min_cycle;Max_cycle;Signal;HPM_P1;HPM_P2
2023/09/08 00:01:31;;;;;;;4.83;3.97;;;;;;;;;;4972448;28;20189;-77
2023/09/08 00:03:56;;;;;;;8.03;4.30;;;;;;;;;;4972869;28;20554;-75
2023/09/08 00:06:22;;;;;;;4.80;4.20;;;;;;;;;;4972056;28;20599;-77
2023/09/08 00:08:48;;;;;;;5.60;4.67;;;;;;;;;;4972758;28;20187;-75
2023/09/08 00:11:14;;;;;;;5.00;3.60;;;;;;;;;;4971797;28;20431;-75
2023/09/08 00:13:40;;;;;;;5.57;4.27;;;;;;;;;;4972656;28;20443;-75
2023/09/08 00:16:08;;;;;;;5.40;4.73;;;;;;;;;;4963793;28;20419;-75
2023/09/08 00:18:34;;;;;;;4.63;4.23;;;;;;;;;;4961693;28;20421;-78
2023/09/08 00:21:00;;;;;;;5.80;4.37;;;;;;;;;;4962711;28;20504;-77
2023/09/08 00:23:28;;;;;;;7.40;4.40;;;;;;;;;;4960799;28;20421;-79
2023/09/08 00:25:54;;;;;;;4.53;4.13;;;;;;;;;;4963309;28;20214;-78
2023/09/08 00:28:19;;;;;;;4.20;3.80;;;;;;;;;;4963698;28;20428;-78
2023/09/08 00:30:45;;;;;;;4.43;4.03;;;;;;;;;;4962849;28;20176;-77
2023/09/08 00:33:13;;;;;;;6.73;4.30;;;;;;;;;;4964637;28;20240;-77
2023/09/08 00:35:39;;;;;;;5.93;4.27;;;;;;;;;;4965237;28;20191;-80
2023/09/08 00:38:05;;;;;;;7.30;5.07;;;;;;;;;;4967396;28;20508;-79
2023/09/08 00:40:32;;;;;;;5.10;4.60;;;;;;;;;;4964656;28;20407;-79
2023/09/08 00:42:58;;;;;;;4.93;3.60;;;;;;;;;;4963275;28;20217;-78
2023/09/08 00:45:24;;;;;;;4.33;3.93;;;;;;;;;;4962859;28;20497;-79
2023/09/08 00:47:50;;;;;;;5.80;4.60;;;;;;;;;;4963233;28;20358;-80
2023/09/08 00:50:16;;;;;;;5.83;5.27;;;;;;;;;;4966466;28;21176;-81
2023/09/08 00:52:41;;;;;;;5.40;4.17;;;;;;;;;;4967098;28;20887;-77
2023/09/08 00:55:08;;;;;;;5.13;4.23;;;;;;;;;;4966497;28;20219;-79
2023/09/08 00:57:33;;;;;;;5.80;4.33;;;;;;;;;;4966157;28;20179;-79
2023/09/08 00:59:59;;;;;;;6.13;4.80;;;;;;;;;;4967865;28;20444;-78
2023/09/08 01:02:25;;;;;;;5.50;5.00;;;;;;;;;;4968551;28;20255;-78
2023/09/08 01:04:51;;;;;;;4.80;4.30;;;;;;;;;;4965929;28;20414;-78
2023/09/08 01:07:19;;;;;;;8.20;5.60;;;;;;;;;;4965999;28;20560;-78
2023/09/08 01:09:46;;;;;;;6.87;4.17;;;;;;;;;;4967345;28;20419;-77
2023/09/08 01:12:12;;;;;;;4.70;4.30;;;;;;;;;;4974128;28;20423;-76
2023/09/08 01:14:38;;;;;;;6.23;3.70;;;;;;;;;;4976486;28;20418;-77
2023/09/08 01:17:04;;;;;;;5.20;4.67;;;;;;;;;;4976872;28;20540;-76
2023/09/08 01:19:30;;;;;;;6.50;4.07;;;;;;;;;;4976721;28;20778;-76
2023/09/08 01:22:16;;;;;;;4.70;3.87;;;;;;;;;;4976794;28;20425;-76
2023/09/08 01:24:54;;;;;;;10.67;4.47;;;;;;;;;;4966598;28;20430;-77
2023/09/08 01:27:22;;;;;;;5.83;5.23;;;;;;;;;;4976590;28;20479;-76
2023/09/08 01:29:49;;;;;;;5.53;3.60;;;;;;;;;;4976299;28;20456;-76
2023/09/08 01:32:15;;;;;;;8.37;4.87;;;;;;;;;;4976580;28;21118;-77
2023/09/08 01:34:41;;;;;;;4.83;4.23;;;;;;;;;;4976610;28;20409;-76
2023/09/08 01:37:07;;;;;;;5.87;5.07;;;;;;;;;;4976498;28;20425;-76
2023/09/08 01:39:33;;;;;;;5.00;4.47;;;;;;;;;;4976516;28;20561;-77
2023/09/08 01:41:59;;;;;;;5.80;3.70;;;;;;;;;;4976398;28;20507;-77
2023/09/08 01:44:25;;;;;;;5.07;4.57;;;;;;;;;;4976047;28;20429;-77
2023/09/08 01:46:56;;;;;;;5.63;4.83;;;;;;;;;;4976204;28;20213;-77
2023/09/08 01:49:22;;;;;;;5.73;4.70;;;;;;;;;;4976300;28;20242;-77
2023/09/08 01:51:48;;;;;;;6.53;5.67;;;;;;;;;;4976237;28;20419;-76
2023/09/08 01:54:14;;;;;;;7.20;5.03;;;;;;;;;;4976012;28;20230;-77
2023/09/08 01:56:40;;;;;;;7.70;5.63;;;;;;;;;;4976180;28;20657;-77
2023/09/08 01:59:05;;;;;;;7.13;5.00;;;;;;;;;;4975641;28;20405;-76
2023/09/08 02:01:31;;;;;;;5.60;4.17;;;;;;;;;;4976055;28;20177;-76
2023/09/08 02:03:57;;;;;;;5.03;4.43;;;;;;;;;;4976078;28;20205;-77
2023/09/08 02:06:23;;;;;;;7.10;5.27;;;;;;;;;;4975921;28;20651;-76
2023/09/08 02:08:49;;;;;;;6.83;4.87;;;;;;;;;;4975995;28;20182;-76
2023/09/08 02:11:15;;;;;;;8.37;5.80;;;;;;;;;;4975928;28;20173;-76
2023/09/08 02:13:42;;;;;;;5.20;4.53;;;;;;;;;;4975758;28;20417;-76
2023/09/08 02:16:13;;;;;;;5.13;4.20;;;;;;;;;;4975474;28;20187;-76
2023/09/08 02:18:39;;;;;;;7.27;5.47;;;;;;;;;;4975844;28;20849;-76
2023/09/08 02:21:05;;;;;;;7.43;5.00;;;;;;;;;;4975704;28;20420;-76
2023/09/08 02:23:31;;;;;;;6.77;5.90;;;;;;;;;;4975662;28;20256;-77
2023/09/08 02:25:56;;;;;;;6.53;5.73;;;;;;;;;;4975517;28;20670;-76
2023/09/08 02:28:22;;;;;;;7.90;6.17;;;;;;;;;;4975569;28;20184;-76
2023/09/08 02:30:48;;;;;;;6.07;5.40;;;;;;;;;;4975247;28;20240;-76
2023/09/08 02:33:14;;;;;;;5.20;4.63;;;;;;;;;;4975447;28;20188;-77
2023/09/08 02:35:40;;;;;;;5.47;4.97;;;;;;;;;;4975413;28;20406;-76
2023/09/08 02:38:06;;;;;;;8.80;6.40;;;;;;;;;;4975370;28;20413;-76
2023/09/08 02:40:34;;;;;;;6.87;6.20;;;;;;;;;;4975283;28;20409;-77
2023/09/08 02:43:00;;;;;;;7.27;6.07;;;;;;;;;;4975237;28;20503;-76
2023/09/08 02:45:26;;;;;;;7.23;6.23;;;;;;;;;;4973699;28;20442;-77
2023/09/08 02:47:52;;;;;;;6.00;5.47;;;;;;;;;;4975118;28;20510;-77
2023/09/08 02:50:18;;;;;;;7.50;5.67;;;;;;;;;;4975147;28;20418;-77
2023/09/08 02:52:44;;;;;;;8.30;5.67;;;;;;;;;;4975128;28;20413;-77
2023/09/08 02:55:11;;;;;;;6.90;5.40;;;;;;;;;;4974769;28;20553;-79
2023/09/08 02:57:37;;;;;;;7.00;6.23;;;;;;;;;;4974528;28;20433;-76
2023/09/08 03:00:04;;;;;;;6.67;6.00;;;;;;;;;;4974608;28;20422;-77
2023/09/08 03:02:31;;;;;;;6.70;6.00;;;;;;;;;;4974889;28;20218;-77
2023/09/08 03:04:56;;;;;;;8.60;5.77;;;;;;;;;;4974857;28;20436;-77
2023/09/08 03:07:22;;;;;;;6.40;5.80;;;;;;;;;;4974767;28;20974;-78
2023/09/08 03:09:48;;;;;;;6.73;5.87;;;;;;;;;;4974851;28;20418;-77
2023/09/08 03:12:14;;;;;;;6.43;4.87;;;;;;;;;;4974317;28;20174;-78
2023/09/08 03:14:40;;;;;;;6.83;6.10;;;;;;;;;;4974338;28;20179;-77
2023/09/08 03:17:06;;;;;;;6.53;5.87;;;;;;;;;;4974657;28;20424;-76
2023/09/08 03:19:32;;;;;;;6.90;6.20;;;;;;;;;;4974648;28;20404;-77
2023/09/08 03:21:58;;;;;;;7.30;6.60;;;;;;;;;;4974582;28;20416;-77
2023/09/08 03:24:24;;;;;;;7.23;6.47;;;;;;;;;;4974518;28;20491;-76
2023/09/08 03:26:50;;;;;;;8.50;7.77;;;;;;;;;;4974435;28;20223;-76
2023/09/08 03:29:16;;;;;;;6.77;6.17;;;;;;;;;;4956835;28;20517;-77
2023/09/08 03:31:42;;;;;;;7.37;6.67;;;;;;;;;;4974399;28;20534;-76
2023/09/08 03:34:08;;;;;;;8.10;5.53;;;;;;;;;;4974302;28;20982;-76
2023/09/08 03:36:36;;;;;;;8.93;8.03;;;;;;;;;;4974367;28;20892;-77
2023/09/08 03:39:03;;;;;;;9.00;7.33;;;;;;;;;;4974349;28;20417;-76
2023/09/08 03:41:29;;;;;;;6.13;5.53;;;;;;;;;;4974319;28;20907;-77
2023/09/08 03:43:55;;;;;;;14.40;7.07;;;;;;;;;;4973990;28;20577;-75
2023/09/08 03:46:21;;;;;;;9.00;6.90;;;;;;;;;;4974152;28;20477;-77
2023/09/08 03:48:47;;;;;;;6.90;6.30;;;;;;;;;;4974263;28;20847;-77
2023/09/08 03:51:13;;;;;;;7.00;6.30;;;;;;;;;;4974098;28;20563;-76
2023/09/08 03:53:39;;;;;;;8.83;7.07;;;;;;;;;;4973959;28;20419;-76
2023/09/08 03:56:04;;;;;;;6.40;5.80;;;;;;;;;;4974212;28;20172;-77
2023/09/08 03:58:30;;;;;;;7.33;6.63;;;;;;;;;;4973929;28;20589;-77
2023/09/08 04:00:56;;;;;;;8.40;7.10;;;;;;;;;;4974173;28;20980;-77
2023/09/08 04:03:22;;;;;;;7.33;6.63;;;;;;;;;;4974101;28;20424;-77
2023/09/08 04:05:48;;;;;;;7.13;6.50;;;;;;;;;;4974014;28;20428;-77
2023/09/08 04:08:14;;;;;;;7.83;7.00;;;;;;;;;;4973973;28;20177;-77
2023/09/08 04:10:40;;;;;;;7.53;6.47;;;;;;;;;;4974079;28;20817;-77
2023/09/08 04:13:06;;;;;;;7.67;6.97;;;;;;;;;;4974118;28;20214;-77
2023/09/08 04:15:32;;;;;;;10.30;7.00;;;;;;;;;;4973588;28;20467;-78
2023/09/08 04:17:58;;;;;;;9.50;7.47;;;;;;;;;;4974008;28;20420;-77
2023/09/08 04:20:24;;;;;;;9.20;6.70;;;;;;;;;;4973932;28;20181;-77
2023/09/08 04:22:50;;;;;;;8.07;6.93;;;;;;;;;;4973942;28;20413;-77
2023/09/08 04:25:16;;;;;;;7.90;7.10;;;;;;;;;;4977703;28;20463;-77
2023/09/08 04:27:42;;;;;;;8.77;7.93;;;;;;;;;;4977572;28;20468;-78
2023/09/08 04:30:09;;;;;;;8.43;7.27;;;;;;;;;;4977485;28;20398;-77
2023/09/08 04:32:34;;;;;;;8.03;7.23;;;;;;;;;;4977576;28;20413;-77
2023/09/08 04:35:00;;;;;;;8.83;8.03;;;;;;;;;;4977534;28;20959;-77
2023/09/08 04:37:26;;;;;;;9.03;7.30;;;;;;;;;;4977612;28;20412;-78
2023/09/08 04:39:52;;;;;;;9.00;7.30;;;;;;;;;;4977444;28;20421;-77
2023/09/08 04:42:18;;;;;;;9.00;7.10;;;;;;;;;;4964572;28;20183;-77
2023/09/08 04:44:44;;;;;;;9.00;7.43;;;;;;;;;;4956583;28;20212;-79
2023/09/08 04:47:10;;;;;;;7.90;7.17;;;;;;;;;;4958010;28;20470;-80
2023/09/08 04:49:37;;;;;;;8.67;7.37;;;;;;;;;;4958181;28;20192;-77
2023/09/08 04:52:03;;;;;;;8.53;7.20;;;;;;;;;;4973779;28;20188;-77
2023/09/08 04:54:29;;;;;;;9.17;7.00;;;;;;;;;;4977077;28;20491;-77
2023/09/08 04:56:55;;;;;;;8.67;7.83;;;;;;;;;;4971691;28;20910;-77
2023/09/08 04:59:22;;;;;;;7.73;6.93;;;;;;;;;;4976820;28;20425;-77
2023/09/08 05:01:48;;;;;;;8.10;7.30;;;;;;;;;;4977295;28;20421;-77
2023/09/08 05:04:14;;;;;;;8.63;7.73;;;;;;;;;;4973124;28;21121;-77
2023/09/08 05:06:40;;;;;;;8.50;7.70;;;;;;;;;;4966153;28;20221;-78
2023/09/08 05:09:06;;;;;;;9.47;8.57;;;;;;;;;;4966459;28;20196;-78
2023/09/08 05:11:32;;;;;;;12.07;8.97;;;;;;;;;;4967777;28;20420;-76
2023/09/08 05:13:58;;;;;;;12.40;11.20;;;;;;;;;;4965615;28;20815;-77
2023/09/08 05:16:39;;;;;;;14.67;13.27;;;;;;;;;;4964350;28;20181;-76
2023/09/08 05:19:05;;;;;;;15.03;13.67;;;;;;;;;;4957610;28;20402;-77
2023/09/08 05:21:34;;;;;;;16.37;14.70;;;;;;;;;;4956535;28;20413;-78
2023/09/08 05:24:00;;;;;;;16.80;14.97;;;;;;;;;;4974216;28;20414;-76
2023/09/08 05:26:26;;;;;;;20.03;16.07;;;;;;;;;;4976597;28;20529;-76
2023/09/08 05:28:52;;;;;;;20.00;17.93;;;;;;;;;;4976227;28;20418;-76
2023/09/08 05:31:18;;;;;;;17.80;14.97;;;;;;;;;;4976749;28;20504;-76
2023/09/08 05:33:44;;;;;;;19.33;15.97;;;;;;;;;;4976280;28;20543;-76
2023/09/08 05:36:10;;;;;;;16.47;14.70;;;;;;;;;;4976438;28;20481;-77
2023/09/08 05:38:36;;;;;;;16.40;13.30;;;;;;;;;;4976533;28;20172;-78
2023/09/08 05:41:02;;;;;;;14.70;12.90;;;;;;;;;;4976439;28;20414;-77
2023/09/08 05:43:28;;;;;;;16.77;13.37;;;;;;;;;;4975976;28;20165;-77
2023/09/08 05:45:54;;;;;;;14.13;12.40;;;;;;;;;;4976295;28;20509;-77
2023/09/08 05:48:20;;;;;;;14.83;11.60;;;;;;;;;;4976348;28;20570;-78
2023/09/08 05:50:46;;;;;;;16.73;11.67;;;;;;;;;;4976374;28;20411;-78
2023/09/08 05:53:12;;;;;;;14.43;11.10;;;;;;;;;;4976385;28;20532;-78
2023/09/08 05:55:38;;;;;;;16.77;13.93;;;;;;;;;;4976077;28;20234;-79
2023/09/08 05:58:06;;;;;;;16.47;11.83;;;;;;;;;;4975496;28;20190;-77
2023/09/08 06:00:32;;;;;;;16.13;12.27;;;;;;;;;;4975674;28;20175;-76
2023/09/08 06:02:57;;;;;;;16.97;11.43;;;;;;;;;;4975792;28;20517;-77
2023/09/08 06:05:24;;;;;;;18.60;13.73;;;;;;;;;;4975936;28;20186;-79
2023/09/08 06:07:50;;;;;;;12.13;10.87;;;;;;;;;;4975816;28;20264;-78
2023/09/08 06:10:15;;;;;;;16.07;12.17;;;;;;;;;;4975702;28;20419;-78
2023/09/08 06:12:43;;;;;;;19.30;13.53;;;;;;;;;;4975852;28;20426;-78
2023/09/08 06:15:09;;;;;;;18.57;12.57;;;;;;;;;;4958366;28;20942;-78
2023/09/08 06:17:35;;;;;;;16.53;12.90;;;;;;;;;;4975760;28;20427;-79
2023/09/08 06:20:01;;;;;;;14.90;13.03;;;;;;;;;;4971377;28;20477;-79
2023/09/08 06:22:26;;;;;;;16.87;12.80;;;;;;;;;;4965821;28;20946;-79
2023/09/08 06:24:52;;;;;;;20.30;12.73;;;;;;;;;;4961789;28;20410;-78
2023/09/08 06:27:18;;;;;;;18.60;12.20;;;;;;;;;;4958700;28;20306;-78
2023/09/08 06:29:44;;;;;;;11.87;10.63;;;;;;;;;;4960088;28;20231;-78
2023/09/08 06:32:11;;;;;;;11.30;9.43;;;;;;;;;;4969535;28;20429;-79
2023/09/08 06:34:37;;;;;;;13.50;9.70;;;;;;;;;;4971932;28;20638;-81
2023/09/08 06:37:03;;;;;;;9.10;8.20;;;;;;;;;;4960184;28;20482;-79
2023/09/08 06:39:29;;;;;;;9.07;7.80;;;;;;;;;;4975136;28;20189;-79
2023/09/08 06:41:55;;;;;;;9.70;7.90;;;;;;;;;;4975380;28;20475;-79
2023/09/08 06:44:21;;;;;;;11.27;8.50;;;;;;;;;;4973705;28;20972;-79
2023/09/08 06:46:47;;;;;;;7.90;6.57;;;;;;;;;;4974346;28;20934;-80
2023/09/08 06:49:13;;;;;;;8.50;7.80;;;;;;;;;;4975114;28;20488;-79
2023/09/08 06:51:39;;;;;;;11.73;7.80;;;;;;;;;;4975184;28;20506;-79
2023/09/08 06:54:04;;;;;;;7.30;6.60;;;;;;;;;;4974892;28;20468;-79
2023/09/08 06:56:30;;;;;;;11.20;7.40;;;;;;;;;;4973819;28;20527;-78
2023/09/08 06:58:57;;;;;;;8.20;7.50;;;;;;;;;;4974677;28;20420;-78
2023/09/08 07:01:23;;;;;;;8.27;7.10;;;;;;;;;;4975109;28;20632;-79
2023/09/08 07:03:49;;;;;;;6.30;5.73;;;;;;;;;;4973706;28;20434;-78
2023/09/08 07:06:16;;;;;;;8.20;7.50;;;;;;;;;;4974830;28;21040;-79
2023/09/08 07:08:42;;;;;;;7.63;6.90;;;;;;;;;;4974842;28;20500;-79
2023/09/08 07:11:08;;;;;;;7.60;6.90;;;;;;;;;;4974805;28;20507;-79
2023/09/08 07:13:34;;;;;;;6.90;6.30;;;;;;;;;;4974368;28;20500;-79
2023/09/08 07:16:00;;;;;;;7.13;6.23;;;;;;;;;;4974659;28;20510;-79
2023/09/08 07:18:26;;;;;;;7.37;6.27;;;;;;;;;;4974711;28;20779;-78
2023/09/08 07:20:52;;;;;;;8.67;6.90;;;;;;;;;;4972164;28;20432;-79
2023/09/08 07:23:18;;;;;;;7.97;7.27;;;;;;;;;;4972697;28;20478;-81
2023/09/08 07:25:47;;;;;;;7.60;7.00;;;;;;;;;;4973601;28;20999;-80
2023/09/08 07:28:13;;;;;;;7.30;6.60;;;;;;;;;;4973083;28;20278;-80
2023/09/08 07:30:39;;;;;;;7.73;7.07;;;;;;;;;;4972734;28;20411;-79
2023/09/08 07:33:05;;;;;;;7.37;6.67;;;;;;;;;;4974399;28;20764;-79
2023/09/08 07:35:31;;;;;;;7.77;7.10;;;;;;;;;;4974412;28;20180;-78
2023/09/08 07:37:57;;;;;;;7.97;7.20;;;;;;;;;;4974012;28;20179;-79
2023/09/08 07:40:23;;;;;;;7.70;7.10;;;;;;;;;;4974280;28;20199;-77
2023/09/08 07:42:49;;;;;;;10.33;7.10;;;;;;;;;;4974380;28;20254;-78
2023/09/08 07:45:15;;;;;;;7.10;6.50;;;;;;;;;;4974072;28;20188;-76
2023/09/08 07:47:41;;;;;;;8.10;7.37;;;;;;;;;;4974227;28;20218;-76
2023/09/08 07:50:21;;;;;;;7.70;6.20;;;;;;;;;;4974253;28;20172;-76
2023/09/08 07:52:47;;;;;;;6.30;5.70;;;;;;;;;;4974273;28;20932;-76
2023/09/08 07:55:13;;;;;;;6.43;5.93;;;;;;;;;;4974119;28;20460;-76
2023/09/08 07:57:39;;;;;;;7.20;6.63;;;;;;;;;;4974112;28;20451;-76
2023/09/08 08:00:05;;;;;;;7.53;6.47;;;;;;;;;;4973825;28;20818;-76
2023/09/08 08:02:31;;;;;;;7.20;6.60;;;;;;;;;;4974096;28;20180;-76
2023/09/08 08:04:57;;;;;;;7.93;7.23;;;;;;;;;;4974159;28;20426;-76
2023/09/08 08:07:23;;;;;;;6.90;6.00;;;;;;;;;;4974085;28;20255;-76
2023/09/08 08:09:49;;;;;;;7.63;7.00;;;;;;;;;;4974136;28;20431;-76
2023/09/08 08:12:15;;;;;;;8.03;7.23;;;;;;;;;;4974094;28;20788;-75
2023/09/08 08:14:41;;;;;;;7.77;7.07;;;;;;;;;;4973648;28;20172;-76
2023/09/08 08:17:07;;;;;;;7.50;6.87;;;;;;;;;;4974072;28;20653;-76
2023/09/08 08:19:33;;;;;;;7.40;6.80;;;;;;;;;;4973962;28;20450;-76
2023/09/08 08:21:59;;;;;;;7.23;6.53;;;;;;;;;;4973988;28;20284;-75
2023/09/08 08:24:25;;;;;;;6.97;6.27;;;;;;;;;;4973991;28;20634;-76
2023/09/08 08:26:51;;;;;;;7.10;6.50;;;;;;;;;;4973972;28;20243;-75
2023/09/08 08:29:17;;;;;;;6.27;5.77;;;;;;;;;;4972383;28;20176;-75
2023/09/08 08:31:43;;;;;;;6.43;5.93;;;;;;;;;;4973887;28;20475;-76
2023/09/08 08:34:09;;;;;;;6.60;6.10;;;;;;;;;;4973922;28;20199;-75
2023/09/08 08:36:35;;;;;;;6.27;5.67;;;;;;;;;;4972637;28;20432;-75
2023/09/08 08:39:01;;;;;;;6.23;5.70;;;;;;;;;;4973630;28;20215;-76
2023/09/08 08:41:29;;;;;;;8.00;6.23;;;;;;;;;;4973852;28;20630;-76
2023/09/08 08:43:56;;;;;;;7.10;6.57;;;;;;;;;;4973438;28;20420;-76
2023/09/08 08:46:22;;;;;;;6.80;6.17;;;;;;;;;;4972614;28;20819;-76
2023/09/08 08:48:49;;;;;;;6.80;6.20;;;;;;;;;;4947499;28;21116;-81
2023/09/08 08:51:18;;;;;;;5.70;5.20;;;;;;;;;;4936508;28;20511;-77
2023/09/08 08:53:44;;;;;;;6.70;6.10;;;;;;;;;;4936432;29;20778;-77
2023/09/08 08:56:10;;;;;;;6.03;5.40;;;;;;;;;;4953731;28;20420;-78
2023/09/08 08:58:38;;;;;;;8.70;7.83;;;;;;;;;;4953640;28;20623;-82
2023/09/08 09:01:04;;;;;;;6.87;6.27;;;;;;;;;;4936591;29;20479;-78
2023/09/08 09:03:31;;;;;;;6.83;6.23;;;;;;;;;;4953963;29;20425;-76
2023/09/08 09:05:57;;;;;;;6.40;5.90;;;;;;;;;;4953652;28;20793;-76
2023/09/08 09:08:23;;;;;;;6.77;5.97;;;;;;;;;;4953744;28;20453;-79
2023/09/08 09:10:49;;;;;;;7.60;6.93;;;;;;;;;;4959627;28;20420;-79
2023/09/08 09:13:15;;;;;;;6.70;6.10;;;;;;;;;;4975801;28;20930;-78
2023/09/08 09:15:41;;;;;;;6.33;5.73;;;;;;;;;;4976265;28;20498;-77
2023/09/08 09:18:07;;;;;;;6.70;6.10;;;;;;;;;;4976393;28;20173;-78
2023/09/08 09:20:34;;;;;;;7.10;6.50;;;;;;;;;;4974854;28;20675;-78
2023/09/08 09:23:00;;;;;;;6.17;5.73;;;;;;;;;;4976304;28;20510;-77
2023/09/08 09:25:28;;;;;;;7.23;5.80;;;;;;;;;;4976074;28;20486;-81
2023/09/08 09:27:55;;;;;;;6.60;6.10;;;;;;;;;;4975655;28;20475;-78
2023/09/08 09:30:21;;;;;;;6.13;5.63;;;;;;;;;;4976062;28;20412;-77
2023/09/08 09:32:49;;;;;;;5.90;5.50;;;;;;;;;;4976001;28;20420;-79
2023/09/08 09:35:15;;;;;;;6.33;5.83;;;;;;;;;;4974841;28;20506;-80
2023/09/08 09:37:41;;;;;;;6.20;5.67;;;;;;;;;;4974666;28;20575;-79
2023/09/08 09:40:09;;;;;;;6.70;6.20;;;;;;;;;;4975367;28;20169;-79
2023/09/08 09:42:40;;;;;;;11.13;6.27;;;;;;;;;;4975621;28;20957;-76
2023/09/08 09:45:09;;;;;;;5.70;5.30;;;;;;;;;;4974761;28;20830;-77
2023/09/08 09:47:35;;;;;;;6.63;6.03;;;;;;;;;;4975339;28;20479;-75
2023/09/08 09:50:02;;;;;;;7.07;6.40;;;;;;;;;;4975953;28;20408;-77
2023/09/08 09:52:30;;;;;;;6.77;6.20;;;;;;;;;;4975768;28;20499;-78
2023/09/08 09:54:56;;;;;;;6.27;5.83;;;;;;;;;;4975772;28;20888;-78
2023/09/08 09:57:23;;;;;;;6.87;6.37;;;;;;;;;;4975779;28;20419;-78
2023/09/08 09:59:50;;;;;;;6.90;6.40;;;;;;;;;;4968769;28;20427;-78
2023/09/08 10:02:20;;;;;;;6.70;6.10;;;;;;;;;;4955542;28;20494;-80
2023/09/08 10:04:46;;;;;;;5.83;5.40;;;;;;;;;;4975133;28;20419;-79
2023/09/08 10:07:12;;;;;;;6.60;5.90;;;;;;;;;;4966016;28;20940;-82
2023/09/08 10:09:38;;;;;;;6.40;6.00;;;;;;;;;;4938470;29;20910;-80
2023/09/08 10:12:05;;;;;;;7.23;6.63;;;;;;;;;;4954771;28;20427;-78
2023/09/08 10:14:32;;;;;;;6.20;5.70;;;;;;;;;;4956638;28;20412;-82
2023/09/08 10:17:00;;;;;;;7.17;5.43;;;;;;;;;;4975368;28;20917;-82
2023/09/08 10:19:26;;;;;;;5.30;4.90;;;;;;;;;;4975238;28;20570;-84
2023/09/08 10:21:55;;;;;;;5.83;5.40;;;;;;;;;;4974161;28;20419;-82
2023/09/08 10:24:27;;;;;;;5.93;5.50;;;;;;;;;;4974877;28;20452;-87
2023/09/08 10:27:05;;;;;;;5.63;5.23;;;;;;;;;;4975094;28;20561;-78
2023/09/08 10:29:33;;;;;;;6.27;5.67;;;;;;;;;;4974947;28;20954;-81
2023/09/08 10:32:00;;;;;;;7.63;5.37;;;;;;;;;;4974981;28;20474;-80
2023/09/08 10:34:26;;;;;;;6.80;6.10;;;;;;;;;;4974574;28;20434;-77
2023/09/08 10:36:53;;;;;;;7.33;5.97;;;;;;;;;;4973727;28;20423;-78
2023/09/08 10:39:35;;;;;;;6.10;5.70;;;;;;;;;;4974704;28;20923;-76
2023/09/08 10:42:19;;;;;;;6.03;5.63;;;;;;;;;;4974714;28;20793;-77
2023/09/08 10:44:49;;;;;;;6.23;5.60;;;;;;;;;;4973988;28;20814;-77
2023/09/08 10:47:15;;;;;;;5.73;5.13;;;;;;;;;;4974554;28;20407;-77
2023/09/08 10:49:41;;;;;;;6.33;5.73;;;;;;;;;;4974654;28;20927;-76
2023/09/08 10:52:11;;;;;;;6.13;5.53;;;;;;;;;;4974515;28;21051;-77
2023/09/08 10:54:43;;;;;;;6.60;6.07;;;;;;;;;;4974306;28;20533;-77
2023/09/08 10:57:17;;;;;;;6.30;5.27;;;;;;;;;;4974271;28;20510;-78
2023/09/08 10:59:51;;;;;;;6.90;5.70;;;;;;;;;;4974306;28;20510;-80
2023/09/08 11:02:36;;;;;;;5.17;4.77;;;;;;;;;;4974508;28;20819;-84
2023/09/08 11:05:04;;;;;;;4.93;4.63;;;;;;;;;;4974383;28;20776;-82
2023/09/08 11:07:30;;;;;;;4.80;4.40;;;;;;;;;;4974431;28;20420;-82
2023/09/08 11:09:56;;;;;;;5.80;5.33;;;;;;;;;;4974128;28;21138;-79
2023/09/08 11:12:24;;;;;;;5.40;5.00;;;;;;;;;;4973939;28;20426;-80
2023/09/08 11:14:50;;;;;;;6.60;6.00;;;;;;;;;;4974146;28;20629;-81
2023/09/08 11:17:16;;;;;;;9.63;7.03;;;;;;;;;;4974278;28;20486;-77
2023/09/08 11:19:46;;;;;;;5.90;5.50;;;;;;;;;;4974123;28;20179;-78
2023/09/08 11:22:12;;;;;;;5.90;5.37;;;;;;;;;;4972821;28;20183;-78
2023/09/08 11:24:39;;;;;;;5.60;5.20;;;;;;;;;;4974112;28;20413;-79
2023/09/08 11:27:05;;;;;;;5.80;5.30;;;;;;;;;;4974088;28;20439;-80
2023/09/08 11:29:31;;;;;;;6.30;5.23;;;;;;;;;;4973857;28;20411;-81
2023/09/08 11:31:57;;;;;;;5.53;5.13;;;;;;;;;;4973476;28;21067;-80
2023/09/08 11:34:23;;;;;;;7.00;5.30;;;;;;;;;;4974033;28;20164;-82
2023/09/08 11:36:49;;;;;;;5.00;4.70;;;;;;;;;;4973943;28;21017;-80
2023/09/08 11:39:15;;;;;;;5.37;5.00;;;;;;;;;;4973585;28;20178;-81
2023/09/08 11:41:41;;;;;;;8.90;5.93;;;;;;;;;;4973908;28;20179;-81
2023/09/08 11:44:07;;;;;;;6.40;5.80;;;;;;;;;;4973619;28;20771;-77
2023/09/08 11:46:33;;;;;;;6.00;5.50;;;;;;;;;;4973766;28;20411;-78
2023/09/08 11:48:59;;;;;;;6.20;5.80;;;;;;;;;;4973804;28;20172;-83
2023/09/08 11:51:27;;;;;;;5.00;4.70;;;;;;;;;;4963878;28;20934;-83
2023/09/08 11:53:53;;;;;;;5.50;5.10;;;;;;;;;;4972051;28;20224;-79
2023/09/08 11:56:19;;;;;;;5.87;5.27;;;;;;;;;;4973586;28;20857;-79
2023/09/08 11:58:51;;;;;;;5.90;5.50;;;;;;;;;;4973196;28;20407;-87
2023/09/08 12:01:17;;;;;;;5.20;4.77;;;;;;;;;;4973709;28;20167;-78
2023/09/08 12:03:57;;;;;;;5.93;5.53;;;;;;;;;;4973482;28;20939;-89
2023/09/08 12:06:27;;;;;;;6.20;5.60;;;;;;;;;;4973507;28;20419;-82
2023/09/08 12:08:54;;;;;;;5.30;4.83;;;;;;;;;;4972494;28;20423;-80
2023/09/08 12:11:20;;;;;;;5.00;4.67;;;;;;;;;;4972248;28;20489;-81
2023/09/08 12:13:46;;;;;;;5.77;5.30;;;;;;;;;;4973053;28;20896;-80
2023/09/08 12:16:19;;;;;;;5.63;5.13;;;;;;;;;;4972929;28;20466;-83
2023/09/08 12:18:45;;;;;;;5.00;4.60;;;;;;;;;;4973628;28;20168;-80
2023/09/08 12:21:11;;;;;;;5.53;5.03;;;;;;;;;;4973376;28;20848;-81
2023/09/08 12:23:48;;;;;;;5.20;4.70;;;;;;;;;;4972161;28;20482;-81
2023/09/08 12:26:13;;;;;;;4.73;4.40;;;;;;;;;;4972276;28;20422;-81
2023/09/08 12:28:39;;;;;;;5.70;4.63;;;;;;;;;;4973070;28;20446;-81
2023/09/08 12:31:05;;;;;;;4.33;4.07;;;;;;;;;;4973370;28;20164;-85
2023/09/08 12:33:31;;;;;;;4.53;4.13;;;;;;;;;;4973289;28;20199;-80
2023/09/08 12:35:57;;;;;;;3.77;3.43;;;;;;;;;;4973401;28;20407;-81
2023/09/08 12:38:23;;;;;;;3.93;3.67;;;;;;;;;;4973267;28;20475;-82
2023/09/08 12:40:49;;;;;;;4.53;4.20;;;;;;;;;;4972141;28;20172;-79
2023/09/08 12:43:15;;;;;;;3.30;3.00;;;;;;;;;;4972934;28;20184;-79
2023/09/08 12:45:41;;;;;;;4.07;3.70;;;;;;;;;;4976050;28;20176;-80
2023/09/08 12:48:07;;;;;;;4.00;3.77;;;;;;;;;;4977438;28;20172;-79
2023/09/08 12:50:33;;;;;;;4.53;3.07;;;;;;;;;;4976947;28;20251;-79
2023/09/08 12:52:59;;;;;;;3.90;3.60;;;;;;;;;;4976915;28;20462;-78
2023/09/08 12:55:25;;;;;;;3.40;3.17;;;;;;;;;;4976689;28;20235;-79
2023/09/08 12:57:54;;;;;;;3.77;3.23;;;;;;;;;;4976408;28;20677;-79
2023/09/08 13:00:20;;;;;;;4.90;3.87;;;;;;;;;;4976677;28;20180;-80
2023/09/08 13:02:46;;;;;;;5.00;4.60;;;;;;;;;;4973124;28;20554;-82
2023/09/08 13:05:12;;;;;;;3.93;3.60;;;;;;;;;;4972423;28;20960;-78
2023/09/08 13:07:38;;;;;;;4.03;3.73;;;;;;;;;;4964323;28;20172;-78
2023/09/08 13:10:04;;;;;;;4.40;4.07;;;;;;;;;;4958153;28;20848;-79
2023/09/08 13:12:31;;;;;;;5.27;3.23;;;;;;;;;;4976037;28;20180;-80
2023/09/08 13:14:57;;;;;;;4.70;4.20;;;;;;;;;;4976245;28;20400;-79
2023/09/08 13:17:23;;;;;;;3.73;3.43;;;;;;;;;;4976221;28;21105;-79
2023/09/08 13:19:48;;;;;;;4.27;3.87;;;;;;;;;;4958825;28;20270;-80
2023/09/08 13:22:14;;;;;;;3.97;3.67;;;;;;;;;;4976126;28;20188;-77
2023/09/08 13:24:40;;;;;;;4.97;3.47;;;;;;;;;;4976162;28;20176;-78
2023/09/08 13:27:06;;;;;;;4.10;3.70;;;;;;;;;;4974687;28;20583;-80
2023/09/08 13:29:32;;;;;;;7.03;4.03;;;;;;;;;;4976147;28;20404;-78
2023/09/08 13:31:58;;;;;;;6.50;4.47;;;;;;;;;;4975921;28;20432;-78
2023/09/08 13:34:25;;;;;;;4.47;3.87;;;;;;;;;;4973992;28;20176;-78
2023/09/08 13:36:50;;;;;;;3.93;3.27;;;;;;;;;;4958433;28;20277;-78
2023/09/08 13:39:16;;;;;;;3.70;3.30;;;;;;;;;;4974477;28;20424;-77
2023/09/08 13:41:52;;;;;;;5.93;4.70;;;;;;;;;;4975621;28;20238;-79
2023/09/08 13:44:19;;;;;;;5.17;4.10;;;;;;;;;;4975943;28;20271;-77
2023/09/08 13:46:46;;;;;;;4.40;4.00;;;;;;;;;;4975686;28;20939;-79
2023/09/08 13:49:12;;;;;;;6.27;4.30;;;;;;;;;;4975748;28;20448;-77
2023/09/08 13:51:38;;;;;;;4.43;4.03;;;;;;;;;;4975653;28;20459;-77
2023/09/08 13:54:04;;;;;;;4.43;4.03;;;;;;;;;;4975392;28;20478;-78
2023/09/08 13:56:29;;;;;;;4.93;4.37;;;;;;;;;;4957854;28;20216;-76
2023/09/08 13:58:55;;;;;;;4.37;3.97;;;;;;;;;;4975174;28;20897;-77
2023/09/08 14:01:21;;;;;;;5.03;4.40;;;;;;;;;;4975441;28;20173;-77
2023/09/08 14:03:51;;;;;;;4.30;3.90;;;;;;;;;;4973833;28;20543;-78
2023/09/08 14:06:17;;;;;;;5.80;4.03;;;;;;;;;;4975362;28;20179;-79
2023/09/08 14:08:43;;;;;;;4.37;3.90;;;;;;;;;;4973724;28;20432;-78
2023/09/08 14:11:09;;;;;;;4.60;4.20;;;;;;;;;;4975346;28;20173;-78
2023/09/08 14:13:35;;;;;;;4.43;3.80;;;;;;;;;;4974717;28;20172;-78
2023/09/08 14:16:01;;;;;;;4.60;4.20;;;;;;;;;;4975340;28;20177;-78
2023/09/08 14:18:27;;;;;;;4.60;4.20;;;;;;;;;;4975100;28;20215;-79
2023/09/08 14:20:52;;;;;;;4.10;3.70;;;;;;;;;;4974158;28;20444;-78
2023/09/08 14:23:18;;;;;;;5.57;4.47;;;;;;;;;;4974481;28;20207;-77
2023/09/08 14:25:44;;;;;;;6.07;3.63;;;;;;;;;;4970216;28;20411;-78
2023/09/08 14:28:10;;;;;;;4.10;3.80;;;;;;;;;;4965258;28;20177;-76
2023/09/08 14:30:36;;;;;;;4.50;3.83;;;;;;;;;;4963256;28;20248;-78
2023/09/08 14:33:02;;;;;;;4.40;4.00;;;;;;;;;;4965990;28;20534;-77
2023/09/08 14:35:28;;;;;;;6.37;4.23;;;;;;;;;;4965190;28;20183;-77
2023/09/08 14:37:54;;;;;;;4.37;3.83;;;;;;;;;;4969194;28;20480;-78